createdAt,value
2019-03-26T00:02:22.867Z,100523.95
2019-03-26T00:04:52.977Z,100531.19
2019-03-26T00:07:23.004Z,100510.63
2019-03-26T00:09:53.021Z,100516.84
2019-03-26T00:12:23.188Z,100507.40
2019-03-26T00:14:53.352Z,100503.35
2019-03-26T00:17:23.442Z,100498.81
2019-03-26T00:19:53.525Z,100493.91
2019-03-26T00:22:23.622Z,100488.02
2019-03-26T00:24:53.763Z,100496.61
2019-03-26T00:27:24.687Z,100496.61
2019-03-26T00:29:55.047Z,100502.86
2019-03-26T00:32:25.067Z,100503.72
2019-03-26T00:34:55.112Z,100497.13
2019-03-26T00:37:25.221Z,100491.21
2019-03-26T00:39:55.215Z,100483.48
2019-03-26T00:42:25.371Z,100473.34
2019-03-26T00:44:55.462Z,100476.05
2019-03-26T00:47:25.515Z,100486.48
2019-03-26T00:49:55.568Z,100486.48
2019-03-26T00:52:25.576Z,100483.77
2019-03-26T00:54:55.663Z,100478.38
2019-03-26T00:57:25.762Z,100478.05
2019-03-26T00:59:55.770Z,100473.48
2019-03-26T01:02:25.842Z,100468.09
2019-03-26T01:04:55.908Z,100466.73
2019-03-26T01:07:25.950Z,100462.69
2019-03-26T01:09:56.064Z,100456.11
2019-03-26T01:12:26.106Z,100457.45
2019-03-26T01:14:56.133Z,100448.02
2019-03-26T01:17:26.233Z,100442.62
2019-03-26T01:19:56.289Z,100443.61
2019-03-26T01:22:26.349Z,100444.47
2019-03-26T01:24:56.410Z,100439.56
2019-03-26T01:27:27.368Z,100433.84
2019-03-26T01:29:57.396Z,100439.56
2019-03-26T01:32:27.423Z,100435.19
2019-03-26T01:34:57.476Z,100436.02
2019-03-26T01:37:27.546Z,100429.80
2019-03-26T01:39:57.606Z,100426.91
2019-03-26T01:42:27.732Z,100424.20
2019-03-26T01:44:57.815Z,100426.38
2019-03-26T01:47:27.855Z,100416.61
2019-03-26T01:49:57.962Z,100417.09
2019-03-26T01:52:28.044Z,100412.56
2019-03-26T01:54:58.156Z,100414.90
2019-03-26T01:57:28.265Z,100413.05
2019-03-26T01:59:58.408Z,100417.09
2019-03-26T02:02:28.529Z,100418.95
2019-03-26T02:05:00.105Z,100422.98
2019-03-26T02:07:30.404Z,100426.70
2019-03-26T02:10:00.439Z,100426.34
2019-03-26T02:12:30.540Z,100426.70
2019-03-26T02:15:00.583Z,100425.36
2019-03-26T02:17:30.660Z,100421.31
2019-03-26T02:20:00.768Z,100407.30
2019-03-26T02:22:30.833Z,100418.61
2019-03-26T02:25:00.942Z,100416.73
2019-03-26T02:27:31.010Z,100419.44
2019-03-26T02:30:01.106Z,100413.55
2019-03-26T02:32:31.256Z,100411.70
2019-03-26T02:35:16.854Z,100412.20
2019-03-26T02:37:33.195Z,100410.00
2019-03-26T02:40:03.332Z,100403.25
2019-03-26T02:42:33.406Z,100401.58
2019-03-26T02:45:03.739Z,100409.17
2019-03-26T02:47:33.751Z,100402.92
2019-03-26T02:50:03.892Z,100401.58
2019-03-26T02:52:33.971Z,100402.56
2019-03-26T02:55:04.148Z,100405.42
2019-03-26T02:57:34.408Z,100415.72
2019-03-26T03:00:04.684Z,100412.17
2019-03-26T03:02:34.763Z,100408.42
2019-03-26T03:05:05.093Z,100412.11
2019-03-26T03:07:35.150Z,100410.43
2019-03-26T03:10:05.644Z,100413.63
2019-03-26T03:12:35.749Z,100416.31
2019-03-26T03:15:06.710Z,100408.72
2019-03-26T03:17:36.753Z,100407.02
2019-03-26T03:20:07.574Z,100394.19
2019-03-26T03:22:37.698Z,100399.94
2019-03-26T03:25:07.856Z,100398.72
2019-03-26T03:27:37.912Z,100396.03
2019-03-26T03:30:09.758Z,100393.00
2019-03-26T03:32:39.825Z,100386.39
2019-03-26T03:35:10.229Z,100384.72
2019-03-26T03:37:40.292Z,100395.14
2019-03-26T03:40:10.947Z,100401.88
2019-03-26T03:42:41.163Z,100393.47
2019-03-26T03:45:11.560Z,100397.52
2019-03-26T03:47:43.631Z,100383.66
2019-03-26T03:50:14.129Z,100384.03
2019-03-26T03:52:44.779Z,100387.72
2019-03-26T03:55:14.888Z,100387.72
2019-03-26T03:57:45.868Z,100382.48
2019-03-26T04:00:38.126Z,100387.35
2019-03-26T04:03:09.325Z,100390.58
2019-03-26T04:05:39.683Z,100388.86
2019-03-26T04:08:09.853Z,100399.66
2019-03-26T04:10:39.902Z,100409.45
2019-03-26T04:13:10.091Z,100398.30
2019-03-26T04:15:40.139Z,100401.85
2019-03-26T04:18:10.273Z,100409.78
2019-03-26T04:20:40.294Z,100405.41
2019-03-26T04:23:10.512Z,100398.98
2019-03-26T04:25:40.536Z,100401.36
2019-03-26T04:28:10.672Z,100409.78
2019-03-26T04:30:40.855Z,100410.63
2019-03-26T04:33:10.926Z,100410.63
2019-03-26T04:35:41.110Z,100414.67
2019-03-26T04:38:11.152Z,100414.19
2019-03-26T04:40:41.328Z,100419.22
2019-03-26T04:43:12.418Z,100429.87
2019-03-26T04:45:42.589Z,100430.36
2019-03-26T04:48:12.622Z,100428.16
2019-03-26T04:50:42.714Z,100436.25
2019-03-26T04:53:15.268Z,100442.98
2019-03-26T04:55:45.274Z,100442.00
2019-03-26T04:58:16.307Z,100447.39
2019-03-26T05:00:46.411Z,100444.17
2019-03-26T05:03:16.567Z,100440.98
2019-03-26T05:05:46.744Z,100440.48
2019-03-26T05:08:16.952Z,100445.39
2019-03-26T05:10:49.465Z,100452.13
2019-03-26T05:13:19.613Z,100458.51
2019-03-26T05:15:49.687Z,100452.46
2019-03-26T05:18:19.750Z,100458.51
2019-03-26T05:20:49.900Z,100459.36
2019-03-26T05:23:19.951Z,100463.91
2019-03-26T05:25:49.945Z,100469.30
2019-03-26T05:28:19.973Z,100480.08
2019-03-26T05:30:50.026Z,100481.44
2019-03-26T05:33:20.092Z,100485.97
2019-03-26T05:35:51.606Z,100497.12
2019-03-26T05:38:22.011Z,100506.06
2019-03-26T05:40:52.186Z,100506.06
2019-03-26T05:43:22.408Z,100506.06
2019-03-26T05:45:52.648Z,100501.66
2019-03-26T05:48:22.748Z,100523.09
2019-03-26T05:50:52.762Z,100520.23
2019-03-26T05:53:22.867Z,100523.42
2019-03-26T05:55:52.888Z,100527.34
2019-03-26T05:58:23.027Z,100538.83
2019-03-26T06:00:55.062Z,100547.25
2019-03-26T06:03:25.131Z,100550.30
2019-03-26T06:05:58.292Z,100558.76
2019-03-26T06:08:28.351Z,100573.92
2019-03-26T06:10:58.389Z,100581.03
2019-03-26T06:13:28.456Z,100578.17
2019-03-26T06:15:58.584Z,100594.56
2019-03-26T06:18:28.600Z,100594.43
2019-03-26T06:20:58.803Z,100599.17
2019-03-26T06:23:28.899Z,100605.75
2019-03-26T06:25:58.978Z,100612.86
2019-03-26T06:28:29.013Z,100614.41
2019-03-26T06:30:59.178Z,100629.45
2019-03-26T06:33:29.241Z,100628.47
2019-03-26T06:35:59.285Z,100635.21
2019-03-26T06:38:29.370Z,100637.91
2019-03-26T06:40:59.398Z,100645.84
2019-03-26T06:43:29.406Z,100656.50
2019-03-26T06:45:59.468Z,100660.39
2019-03-26T06:48:29.495Z,100674.24
2019-03-26T06:51:00.438Z,100674.58
2019-03-26T06:53:30.437Z,100690.44
2019-03-26T06:56:00.514Z,100685.53
2019-03-26T06:58:30.548Z,100694.11
2019-03-26T07:01:00.645Z,100700.86
2019-03-26T07:03:30.765Z,100699.14
2019-03-26T07:06:00.804Z,100722.08
2019-03-26T07:08:30.909Z,100722.94
2019-03-26T07:11:00.929Z,100720.73
2019-03-26T07:13:30.967Z,100735.94
2019-03-26T07:16:01.342Z,100743.66
2019-03-26T07:18:31.414Z,100752.13
2019-03-26T07:21:01.476Z,100747.71
2019-03-26T07:23:31.595Z,100758.02
2019-03-26T07:26:01.672Z,100767.12
2019-03-26T07:28:31.704Z,100773.01
2019-03-26T07:31:01.769Z,100774.84
2019-03-26T07:33:31.838Z,100788.98
2019-03-26T07:36:01.887Z,100798.22
2019-03-26T07:38:32.050Z,100812.20
2019-03-26T07:41:02.101Z,100816.37
2019-03-26T07:43:32.152Z,100809.42
2019-03-26T07:46:04.199Z,100817.66
2019-03-26T07:48:34.191Z,100822.08
2019-03-26T07:51:05.422Z,100824.78
2019-03-26T07:53:35.355Z,100834.22
2019-03-26T07:56:07.288Z,100818.86
2019-03-26T07:58:37.385Z,100819.59
2019-03-26T08:01:07.770Z,100825.32
2019-03-26T08:03:37.897Z,100836.48
2019-03-26T08:06:07.921Z,100842.58
2019-03-26T08:08:40.589Z,100848.19
2019-03-26T08:11:09.900Z,100848.40
2019-03-26T08:13:41.092Z,100860.30
2019-03-26T08:16:12.010Z,100853.91
2019-03-26T08:18:42.156Z,100868.32
2019-03-26T08:21:12.167Z,100868.53
2019-03-26T08:23:42.267Z,100870.30
2019-03-26T08:26:12.289Z,100876.27
2019-03-26T08:28:42.331Z,100880.87
2019-03-26T08:31:12.547Z,100891.05
2019-03-26T08:33:42.571Z,100900.34
2019-03-26T08:36:12.626Z,100900.83
2019-03-26T08:38:42.796Z,100902.18
2019-03-26T08:41:13.668Z,100914.70
2019-03-26T08:43:43.695Z,100916.75
2019-03-26T08:46:13.763Z,100909.34
2019-03-26T08:48:43.818Z,100915.98
2019-03-26T08:51:13.971Z,100921.22
2019-03-26T08:53:44.069Z,100928.55
2019-03-26T08:56:14.093Z,100936.36
2019-03-26T08:58:44.216Z,100932.52
2019-03-26T09:01:14.227Z,100944.89
2019-03-26T09:03:44.278Z,100947.80
2019-03-26T09:06:14.321Z,100957.58
2019-03-26T09:08:44.382Z,100963.34
2019-03-26T09:11:14.435Z,100976.56
2019-03-26T09:13:44.534Z,100985.86
2019-03-26T09:16:14.586Z,100989.27
2019-03-26T09:18:44.606Z,100986.94
2019-03-26T09:21:14.766Z,100996.66
2019-03-26T09:23:44.940Z,101008.11
2019-03-26T09:26:16.273Z,101011.95
2019-03-26T09:28:49.095Z,101013.42
2019-03-26T09:31:19.216Z,101021.19
2019-03-26T09:33:49.256Z,101026.38
2019-03-26T09:36:19.422Z,101025.52
2019-03-26T09:38:49.488Z,101032.42
2019-03-26T09:41:19.572Z,101039.67
2019-03-26T09:43:49.590Z,101042.86
2019-03-26T09:46:19.724Z,101054.52
2019-03-26T09:48:49.857Z,101057.34
2019-03-26T09:51:20.072Z,101061.91
2019-03-26T09:53:50.075Z,101065.59
2019-03-26T09:56:29.191Z,101062.67
2019-03-26T09:58:51.939Z,101072.25
2019-03-26T10:01:21.958Z,101068.35
2019-03-26T10:03:52.078Z,101072.55
2019-03-26T10:06:23.769Z,101078.94
2019-03-26T10:08:53.939Z,101083.96
2019-03-26T10:11:24.015Z,101088.16
2019-03-26T10:13:55.107Z,101085.09
2019-03-26T10:16:25.179Z,101101.81
2019-03-26T10:18:55.238Z,101102.64
2019-03-26T10:21:25.295Z,101111.27
2019-03-26T10:23:55.329Z,101107.70
2019-03-26T10:26:25.439Z,101126.45
2019-03-26T10:28:55.465Z,101135.41
2019-03-26T10:31:25.470Z,101138.48
2019-03-26T10:33:55.681Z,101141.17
2019-03-26T10:36:26.123Z,101138.33
2019-03-26T10:39:05.413Z,101137.34
2019-03-26T10:41:29.400Z,101142.75
2019-03-26T10:43:59.413Z,101141.39
2019-03-26T10:46:29.673Z,101136.48
2019-03-26T10:49:00.674Z,101125.69
2019-03-26T10:51:30.835Z,101127.90
2019-03-26T10:54:00.876Z,101131.95
2019-03-26T10:56:32.644Z,101139.67
2019-03-26T10:59:04.308Z,101137.12
2019-03-26T11:01:34.566Z,101140.31
2019-03-26T11:04:07.538Z,101150.25
2019-03-26T11:06:37.536Z,101151.23
2019-03-26T11:09:19.848Z,101159.48
2019-03-26T11:11:40.404Z,101161.32
2019-03-26T11:14:10.426Z,101154.08
2019-03-26T11:16:40.446Z,101169.42
2019-03-26T11:19:10.506Z,101171.63
2019-03-26T11:21:40.510Z,101178.87
2019-03-26T11:24:10.550Z,101179.73
2019-03-26T11:26:40.616Z,101170.66
2019-03-26T11:29:10.685Z,101181.45
2019-03-26T11:31:40.712Z,101182.65
2019-03-26T11:34:10.928Z,101188.05
2019-03-26T11:36:41.082Z,101194.65
2019-03-26T11:39:11.192Z,101196.52
2019-03-26T11:41:41.260Z,101200.57
2019-03-26T11:44:11.616Z,101196.86
2019-03-26T11:46:41.689Z,101206.30
2019-03-26T11:49:11.896Z,101194.53
2019-03-26T11:51:41.935Z,101204.69
2019-03-26T11:54:12.088Z,101208.74
2019-03-26T11:56:42.142Z,101206.41
2019-03-26T11:59:12.254Z,101214.52
2019-03-26T12:01:42.476Z,101221.75
2019-03-26T12:04:12.498Z,101215.00
2019-03-26T12:06:42.642Z,101228.02
2019-03-26T12:09:12.736Z,101227.49
2019-03-26T12:11:42.940Z,101245.56
2019-03-26T12:14:13.101Z,101250.96
2019-03-26T12:16:43.131Z,101255.35
2019-03-26T12:19:13.219Z,101249.61
2019-03-26T12:21:43.228Z,101250.96
2019-03-26T12:24:13.316Z,101269.86
2019-03-26T12:26:43.352Z,101267.65
2019-03-26T12:29:13.513Z,101262.25
2019-03-26T12:31:43.545Z,101263.11
2019-03-26T12:34:13.581Z,101266.30
2019-03-26T12:36:43.610Z,101283.85
2019-03-26T12:39:13.713Z,101284.19
2019-03-26T12:41:43.819Z,101286.06
2019-03-26T12:44:13.870Z,101284.70
2019-03-26T12:46:43.974Z,101278.56
2019-03-26T12:49:13.991Z,101286.66
2019-03-26T12:51:44.048Z,101284.98
2019-03-26T12:54:14.189Z,101278.34
2019-03-26T12:56:44.288Z,101288.31
2019-03-26T12:59:16.684Z,101290.64
2019-03-26T13:01:47.024Z,101273.09
2019-03-26T13:04:17.100Z,101293.48
2019-03-26T13:06:47.249Z,101285.39
2019-03-26T13:09:17.305Z,101290.27
2019-03-26T13:11:47.422Z,101298.36
2019-03-26T13:14:17.483Z,101307.81
2019-03-26T13:16:47.550Z,101310.40
2019-03-26T13:19:17.796Z,101288.31
2019-03-26T13:21:47.928Z,101285.09
2019-03-26T13:24:18.046Z,101297.13
2019-03-26T13:26:49.084Z,101299.19
2019-03-26T13:29:19.376Z,101242.84
2019-03-26T13:31:49.680Z,101303.23
2019-03-26T13:34:20.005Z,101313.17
2019-03-26T13:36:50.135Z,101335.64
2019-03-26T13:39:20.288Z,101322.77
2019-03-26T13:41:50.312Z,101331.84
2019-03-26T13:44:20.339Z,101339.09
2019-03-26T13:46:50.408Z,101344.63
2019-03-26T13:49:20.549Z,101340.58
2019-03-26T13:51:50.703Z,101338.74
2019-03-26T13:54:20.787Z,101341.55
2019-03-26T13:56:50.883Z,101347.48
2019-03-26T13:59:20.968Z,101356.92
2019-03-26T14:01:51.203Z,101358.77
2019-03-26T14:04:21.267Z,101365.14
2019-03-26T14:06:52.667Z,101362.44
2019-03-26T14:09:22.891Z,101357.04
2019-03-26T14:11:52.918Z,101356.55
2019-03-26T14:14:23.043Z,101360.11
2019-03-26T14:16:53.122Z,101358.77
2019-03-26T14:19:23.442Z,101358.27
2019-03-26T14:21:53.542Z,101360.11
2019-03-26T14:24:23.636Z,101363.67
2019-03-26T14:26:53.746Z,101359.97
2019-03-26T14:29:24.886Z,101363.05
2019-03-26T14:31:55.045Z,101355.42
2019-03-26T14:34:25.407Z,101355.80
2019-03-26T14:36:55.617Z,101356.78
2019-03-26T14:39:26.829Z,101365.25
2019-03-26T14:41:57.129Z,101370.66
2019-03-26T14:44:27.273Z,101376.05
2019-03-26T14:46:57.342Z,101376.05
2019-03-26T14:49:27.388Z,101371.14
2019-03-26T14:51:57.571Z,101379.24
2019-03-26T14:54:27.633Z,101377.41
2019-03-26T14:56:57.911Z,101376.05
2019-03-26T14:59:28.049Z,101379.09
2019-03-26T15:01:58.191Z,101375.91
2019-03-26T15:04:28.232Z,101374.19
2019-03-26T15:06:58.368Z,101376.28
2019-03-26T15:09:28.408Z,101375.77
2019-03-26T15:11:58.465Z,101374.93
2019-03-26T15:14:28.566Z,101373.92
2019-03-26T15:16:58.715Z,101366.54
2019-03-26T15:19:28.899Z,101366.05
2019-03-26T15:21:58.951Z,101378.09
2019-03-26T15:24:29.101Z,101381.28
2019-03-26T15:26:59.169Z,101381.12
2019-03-26T15:29:29.292Z,101386.76
2019-03-26T15:31:59.366Z,101378.66
2019-03-26T15:34:36.089Z,101382.48
2019-03-26T15:37:01.194Z,101392.30
2019-03-26T15:39:31.279Z,101381.50
2019-03-26T15:42:01.349Z,101387.39
2019-03-26T15:44:31.380Z,101394.14
2019-03-26T15:47:01.474Z,101392.80
2019-03-26T15:49:31.531Z,101389.75
2019-03-26T15:52:01.933Z,101395.16
2019-03-26T15:54:32.007Z,101395.16
2019-03-26T15:57:02.166Z,101399.31
2019-03-26T15:59:32.300Z,101406.21
2019-03-26T16:02:02.320Z,101406.70
2019-03-26T16:04:32.390Z,101404.48
2019-03-26T16:07:02.514Z,101404.48
2019-03-26T16:09:32.596Z,101410.52
2019-03-26T16:12:02.716Z,101406.81
2019-03-26T16:14:32.793Z,101401.30
2019-03-26T16:17:02.893Z,101391.36
2019-03-26T16:19:34.098Z,101402.50
2019-03-26T16:22:05.589Z,101404.34
2019-03-26T16:24:35.628Z,101402.02
2019-03-26T16:27:05.705Z,101406.30
2019-03-26T16:29:35.752Z,101407.53
2019-03-26T16:32:05.912Z,101408.25
2019-03-26T16:34:36.084Z,101410.31
2019-03-26T16:37:06.200Z,101417.15
2019-03-26T16:39:36.261Z,101420.59
2019-03-26T16:42:06.833Z,101424.13
2019-03-26T16:44:36.956Z,101428.06
2019-03-26T16:47:07.024Z,101434.67
2019-03-26T16:49:37.136Z,101436.63
2019-03-26T16:52:07.270Z,101438.58
2019-03-26T16:54:37.373Z,101438.44
2019-03-26T16:57:07.489Z,101450.33
2019-03-26T16:59:37.538Z,101445.64
2019-03-26T17:02:09.599Z,101433.63
2019-03-26T17:04:39.755Z,101440.95
2019-03-26T17:07:09.973Z,101439.98
2019-03-26T17:09:40.128Z,101437.13
2019-03-26T17:12:10.192Z,101443.47
2019-03-26T17:14:40.352Z,101451.95
2019-03-26T17:17:10.619Z,101447.78
2019-03-26T17:19:40.644Z,101450.34
2019-03-26T17:22:10.816Z,101443.95
2019-03-26T17:24:40.994Z,101452.89
2019-03-26T17:27:11.084Z,101464.08
2019-03-26T17:29:41.211Z,101467.16
2019-03-26T17:32:11.297Z,101461.60
2019-03-26T17:34:41.453Z,101473.27
2019-03-26T17:37:11.743Z,101476.84
2019-03-26T17:39:41.945Z,101473.13
2019-03-26T17:42:17.369Z,101476.31
2019-03-26T17:44:43.796Z,101471.92
2019-03-26T17:47:13.829Z,101465.92
2019-03-26T17:49:43.922Z,101467.30
2019-03-26T17:52:14.142Z,101472.74
2019-03-26T17:54:45.166Z,101474.88
2019-03-26T17:57:15.973Z,101466.66
2019-03-26T17:59:46.749Z,101466.05
2019-03-26T18:02:17.585Z,101466.65
2019-03-26T18:04:48.742Z,101465.07
2019-03-26T18:07:19.782Z,101470.47
2019-03-26T18:09:50.671Z,101477.00
2019-03-26T18:12:30.838Z,101468.06
2019-03-26T18:14:55.027Z,101465.85
2019-03-26T18:17:26.728Z,101467.31
2019-03-26T18:19:56.770Z,101471.52
2019-03-26T18:22:27.006Z,101476.42
2019-03-26T18:24:57.192Z,101470.87
2019-03-26T18:27:27.338Z,101476.66
2019-03-26T18:29:57.425Z,101467.77
2019-03-26T18:32:27.598Z,101465.19
2019-03-26T18:34:57.619Z,101469.95
2019-03-26T18:37:27.718Z,101476.22
2019-03-26T18:39:57.785Z,101484.33
2019-03-26T18:42:27.841Z,101489.61
2019-03-26T18:44:58.092Z,101491.25
2019-03-26T18:47:28.217Z,101489.16
2019-03-26T18:49:58.254Z,101486.59
2019-03-26T18:52:28.445Z,101493.75
2019-03-26T18:54:58.494Z,101493.63
2019-03-26T18:57:28.614Z,101496.88
2019-03-26T18:59:58.726Z,101495.78
2019-03-26T19:02:29.931Z,101489.77
2019-03-26T19:05:00.049Z,101502.06
2019-03-26T19:07:30.306Z,101504.77
2019-03-26T19:10:00.521Z,101496.92
2019-03-26T19:12:30.591Z,101501.94
2019-03-26T19:15:03.218Z,101497.17
2019-03-26T19:17:33.251Z,101493.75
2019-03-26T19:20:03.428Z,101503.83
2019-03-26T19:22:35.881Z,101501.61
2019-03-26T19:25:06.286Z,101500.86
2019-03-26T19:27:36.436Z,101502.35
2019-03-26T19:30:07.609Z,101499.66
2019-03-26T19:32:37.836Z,101502.98
2019-03-26T19:35:07.987Z,101502.98
2019-03-26T19:37:38.087Z,101506.16
2019-03-26T19:40:08.597Z,101508.87
2019-03-26T19:42:38.674Z,101507.03
2019-03-26T19:45:09.426Z,101504.80
2019-03-26T19:47:39.594Z,101495.82
2019-03-26T19:50:09.848Z,101493.20
2019-03-26T19:52:40.208Z,101498.25
2019-03-26T19:55:11.339Z,101499.34
2019-03-26T19:57:41.523Z,101502.77
2019-03-26T20:00:13.130Z,101499.34
2019-03-26T20:02:43.165Z,101492.59
2019-03-26T20:05:14.999Z,101493.31
2019-03-26T20:07:45.098Z,101495.52
2019-03-26T20:10:18.489Z,101498.08
2019-03-26T20:12:49.944Z,101493.80
2019-03-26T20:15:20.536Z,101492.59
2019-03-26T20:17:50.605Z,101494.43
2019-03-26T20:20:21.080Z,101486.19
2019-03-26T20:22:51.386Z,101493.17
2019-03-26T20:25:21.581Z,101494.64
2019-03-26T20:27:51.786Z,101490.44
2019-03-26T20:30:22.071Z,101499.64
2019-03-26T20:32:52.239Z,101499.01
2019-03-26T20:35:22.311Z,101499.23
2019-03-26T20:37:52.489Z,101495.91
2019-03-26T20:40:22.674Z,101489.16
2019-03-26T20:42:52.818Z,101491.14
2019-03-26T20:45:23.085Z,101497.78
2019-03-26T20:47:54.128Z,101498.12
2019-03-26T20:50:24.678Z,101496.66
2019-03-26T20:52:54.837Z,101496.52
2019-03-26T20:55:35.270Z,101497.86
2019-03-26T20:58:05.628Z,101501.91
2019-03-26T21:00:37.598Z,101496.37
2019-03-26T21:03:08.126Z,101499.44
2019-03-26T21:05:38.197Z,101491.83
2019-03-26T21:08:08.396Z,101502.52
2019-03-26T21:10:38.896Z,101503.88
2019-03-26T21:13:16.631Z,101526.31
2019-03-26T21:15:57.228Z,101524.87
2019-03-26T21:18:19.974Z,101522.69
2019-03-26T21:20:51.314Z,101516.73
2019-03-26T21:23:24.458Z,101517.38
2019-03-26T21:25:54.523Z,101510.77
2019-03-26T21:28:24.574Z,101514.34
2019-03-26T21:30:57.116Z,101511.92
2019-03-26T21:33:27.415Z,101510.31
2019-03-26T21:35:57.498Z,101512.05
2019-03-26T21:38:27.604Z,101518.45
2019-03-26T21:40:57.761Z,101516.35
2019-03-26T21:43:27.791Z,101517.98
2019-03-26T21:45:57.990Z,101524.73
2019-03-26T21:48:28.126Z,101525.31
2019-03-26T21:51:00.523Z,101525.67
2019-03-26T21:53:30.691Z,101522.33
2019-03-26T21:56:06.708Z,101522.80
2019-03-26T21:58:32.749Z,101526.83
2019-03-26T22:01:03.671Z,101523.02
2019-03-26T22:03:33.695Z,101511.58
2019-03-26T22:06:03.898Z,101443.55
2019-03-26T22:08:33.928Z,101499.70
2019-03-26T22:11:04.027Z,101493.61
2019-03-26T22:13:34.150Z,101499.02
2019-03-26T22:16:05.332Z,101498.70
2019-03-26T22:18:36.254Z,101500.92
2019-03-26T22:21:06.404Z,101502.14
2019-03-26T22:23:36.412Z,101506.97
2019-03-26T22:26:06.517Z,101512.09
2019-03-26T22:28:36.604Z,101508.78
2019-03-26T22:31:06.657Z,101516.16
2019-03-26T22:33:36.796Z,101520.30
2019-03-26T22:36:06.912Z,101528.54
2019-03-26T22:38:36.999Z,101532.20
2019-03-26T22:41:07.108Z,101533.21
2019-03-26T22:43:37.136Z,101532.45
2019-03-26T22:46:07.218Z,101524.98
2019-03-26T22:48:37.269Z,101524.98
2019-03-26T22:51:07.342Z,101525.98
2019-03-26T22:53:38.284Z,101523.77
2019-03-26T22:56:08.479Z,101517.89
2019-03-26T22:58:38.539Z,101514.44
2019-03-26T23:01:08.618Z,101521.19
2019-03-26T23:03:38.646Z,101515.55
2019-03-26T23:06:08.740Z,101514.20
2019-03-26T23:08:38.820Z,101509.32
2019-03-26T23:11:08.998Z,101504.65
2019-03-26T23:13:39.058Z,101499.88
2019-03-26T23:16:09.505Z,101496.31
2019-03-26T23:18:39.521Z,101494.59
2019-03-26T23:21:09.535Z,101491.55
2019-03-26T23:23:39.619Z,101488.47
2019-03-26T23:26:09.663Z,101486.39
2019-03-26T23:28:39.875Z,101487.22
2019-03-26T23:31:10.022Z,101484.27
2019-03-26T23:33:40.081Z,101478.77
2019-03-26T23:36:10.304Z,101480.61
2019-03-26T23:38:40.367Z,101468.09
2019-03-26T23:41:10.422Z,101470.92
2019-03-26T23:43:40.502Z,101471.03
2019-03-26T23:46:11.507Z,101468.34
2019-03-26T23:48:41.583Z,101470.69
2019-03-26T23:51:11.635Z,101472.04
2019-03-26T23:53:41.661Z,101466.98
2019-03-26T23:56:11.807Z,101459.90
2019-03-26T23:58:41.934Z,101461.25
